Time;durP1;ratioP1;P1;durP2;ratioP2;P2;SDS_P1;SDS_P2;PMS_P1;PMS_P2;Temp;Humidity;BMP_temperature;BMP_pressure;BME280_temperature;BME280_humidity;BME280_pressure;Samples;Min_cycle;Max_cycle;Signal;HPM_P1;HPM_P2
2021/12/17 00:04:31;;;;;;;129.95;31.95;;;;;;;8.18;100.00;103941.72;4968477;28;20445;-71
2021/12/17 00:06:57;;;;;;;175.05;38.38;;;;;;;8.00;100.00;103942.31;4983077;28;20044;-71
2021/12/17 00:09:23;;;;;;;143.07;35.03;;;;;;;8.09;100.00;103941.91;5000213;28;20494;-71
2021/12/17 00:11:48;;;;;;;158.20;33.83;;;;;;;8.09;100.00;103941.91;5000002;28;20120;-71
2021/12/17 00:14:24;;;;;;;136.15;34.78;;;;;;;8.03;100.00;103945.47;4982922;28;20116;-71
2021/12/17 00:16:50;;;;;;;123.93;30.73;;;;;;;8.05;100.00;103937.09;4981344;28;20041;-71
2021/12/17 00:19:25;;;;;;;150.18;34.90;;;;;;;8.19;100.00;103943.38;4998445;28;20048;-71
2021/12/17 00:44:13;;;;;;;148.65;32.60;;;;;;;7.82;100.00;103941.06;4969236;28;20134;-72
2021/12/17 00:49:28;;;;;;;181.80;37.03;;;;;;;7.80;100.00;103934.22;4985618;28;20489;-71
2021/12/17 00:52:02;;;;;;;171.25;35.60;;;;;;;7.78;100.00;103930.84;4959858;28;20097;-71
2021/12/17 00:54:36;;;;;;;186.25;36.53;;;;;;;7.91;100.00;103930.84;4960879;28;20429;-72
2021/12/17 00:57:07;;;;;;;177.20;36.45;;;;;;;7.97;100.00;103934.59;4977020;28;20725;-72
2021/12/17 00:59:33;;;;;;;195.32;35.15;;;;;;;7.89;100.00;103924.78;4978920;28;20042;-72
2021/12/17 01:02:02;;;;;;;157.70;34.63;;;;;;;7.86;100.00;103933.38;4985646;28;20108;-72
2021/12/17 01:04:28;;;;;;;170.55;35.50;;;;;;;7.80;100.00;103940.47;4980815;28;20069;-72
2021/12/17 01:06:54;;;;;;;146.00;31.65;;;;;;;7.72;100.00;103933.34;4980470;28;20546;-71
2021/12/17 01:09:22;;;;;;;131.48;31.90;;;;;;;7.67;100.00;103935.84;4998567;28;20564;-71
2021/12/17 01:11:48;;;;;;;131.23;30.75;;;;;;;7.72;100.00;103943.41;4980364;28;20056;-72
2021/12/17 01:14:33;;;;;;;189.48;37.65;;;;;;;7.67;100.00;103927.72;4974014;28;20637;-71
2021/12/17 01:17:19;;;;;;;148.50;32.08;;;;;;;7.70;100.00;103924.56;4978885;28;20487;-71
2021/12/17 01:35:20;;;;;;;140.35;31.08;;;;;;;7.68;100.00;103910.38;4988953;28;20046;-72
2021/12/17 01:35:21;;;;;;;209.88;37.45;;;;;;;7.78;100.00;103909.94;4985985;28;20452;-72
2021/12/17 01:43:10;;;;;;;176.88;34.63;;;;;;;7.85;100.00;103918.09;4999557;28;20398;-72
2021/12/17 01:45:38;;;;;;;186.25;36.97;;;;;;;7.72;100.00;103918.94;5005419;28;20100;-72
2021/12/17 01:48:09;;;;;;;182.13;35.50;;;;;;;7.85;100.00;103920.81;4985608;28;20034;-71
2021/12/17 01:56:30;;;;;;;111.78;29.15;;;;;;;7.88;100.00;103920.38;4985470;28;20054;-72
2021/12/17 02:01:41;;;;;;;144.63;32.63;;;;;;;7.77;100.00;103940.06;4974614;28;20453;-71
2021/12/17 02:04:07;;;;;;;149.07;31.98;;;;;;;7.67;100.00;103946.72;4984986;28;20453;-71
2021/12/17 02:06:36;;;;;;;163.70;30.73;;;;;;;7.35;100.00;103952.94;5001466;28;20369;-71
2021/12/17 02:09:11;;;;;;;122.35;25.95;;;;;;;7.32;100.00;103942.50;5002379;28;20058;-72
2021/12/17 02:20:12;;;;;;;103.15;24.63;;;;;;;7.59;100.00;103933.38;4987591;28;20058;-72
2021/12/17 02:28:42;;;;;;;100.05;25.63;;;;;;;7.76;100.00;103935.66;4963116;28;20097;-71
2021/12/17 02:33:48;;;;;;;84.18;25.20;;;;;;;7.70;100.00;103943.59;4977139;28;20562;-72
2021/12/17 02:36:17;;;;;;;103.38;25.90;;;;;;;7.78;100.00;103937.13;4979332;28;20058;-72
2021/12/17 02:38:42;;;;;;;122.85;26.45;;;;;;;7.75;100.00;103936.72;4961122;28;20133;-72
2021/12/17 02:47:03;;;;;;;141.73;28.43;;;;;;;7.65;100.00;103956.97;4977409;28;20058;-72
2021/12/17 02:49:30;;;;;;;177.27;32.45;;;;;;;7.40;100.00;103951.28;4977120;28;20473;-72
2021/12/17 02:51:56;;;;;;;199.10;33.53;;;;;;;7.36;100.00;103954.59;4976897;28;20088;-72
2021/12/17 02:54:21;;;;;;;119.88;29.35;;;;;;;7.56;100.00;103951.94;4978587;28;20051;-72
2021/12/17 02:56:47;;;;;;;103.55;26.92;;;;;;;7.75;100.00;103947.56;4978899;28;20113;-72
2021/12/17 02:59:13;;;;;;;121.72;28.48;;;;;;;7.74;100.00;103940.44;4977178;28;20053;-72
2021/12/17 03:01:44;;;;;;;120.75;27.40;;;;;;;7.76;100.00;103950.06;4963132;28;20026;-71
2021/12/17 03:04:12;;;;;;;104.45;27.45;;;;;;;7.89;100.00;103938.38;4997576;28;20042;-72
2021/12/17 03:06:40;;;;;;;102.50;27.58;;;;;;;7.92;100.00;103936.06;4979967;28;20056;-72
2021/12/17 03:09:06;;;;;;;111.45;26.55;;;;;;;7.96;100.00;103933.75;4997266;28;20471;-72
2021/12/17 03:11:31;;;;;;;132.32;28.60;;;;;;;7.76;100.00;103932.94;4979580;28;20136;-72
2021/12/17 03:13:57;;;;;;;124.75;28.45;;;;;;;7.71;100.00;103926.25;4997037;28;20045;-71
2021/12/17 03:16:29;;;;;;;103.50;26.38;;;;;;;7.79;100.00;103922.47;4996542;28;20112;-71
2021/12/17 03:19:03;;;;;;;105.38;26.23;;;;;;;7.91;100.00;103919.97;4978746;28;20053;-71
2021/12/17 03:24:18;;;;;;;111.70;24.45;;;;;;;7.96;100.00;103912.03;4978744;28;20050;-72
2021/12/17 03:26:45;;;;;;;110.57;25.73;;;;;;;7.92;100.00;103910.78;4979803;28;20053;-72
2021/12/17 03:29:11;;;;;;;114.25;27.10;;;;;;;7.82;100.00;103910.38;4996247;28;20037;-71
2021/12/17 03:31:43;;;;;;;118.43;26.77;;;;;;;7.73;100.00;103912.47;4978709;28;20402;-71
2021/12/17 03:34:20;;;;;;;132.73;28.42;;;;;;;7.59;100.00;103917.06;4978407;28;20105;-72
2021/12/17 03:36:54;;;;;;;186.65;31.65;;;;;;;7.62;100.00;103919.38;4996794;28;20053;-71
2021/12/17 03:39:25;;;;;;;123.57;27.48;;;;;;;7.80;100.00;103912.47;4978392;28;20038;-73
2021/12/17 03:41:53;;;;;;;124.07;28.60;;;;;;;7.82;100.00;103921.22;4978752;28;20042;-72
2021/12/17 03:44:26;;;;;;;118.00;26.05;;;;;;;7.85;100.00;103915.38;4979103;28;20041;-71
2021/12/17 03:47:01;;;;;;;114.25;28.25;;;;;;;7.88;100.00;103914.97;4980151;28;20103;-72
2021/12/17 03:49:28;;;;;;;132.23;27.88;;;;;;;7.89;100.00;103928.34;4967615;28;20050;-72
2021/12/17 03:52:04;;;;;;;121.43;26.13;;;;;;;7.74;100.00;103918.72;4959917;28;20115;-72
2021/12/17 03:54:35;;;;;;;111.45;26.50;;;;;;;7.91;100.00;103925.41;4960056;28;20038;-72
2021/12/17 03:57:05;;;;;;;114.05;25.75;;;;;;;8.08;100.00;103926.63;4959653;28;20511;-72
2021/12/17 03:59:33;;;;;;;112.97;26.25;;;;;;;7.93;100.00;103931.47;4959924;28;20422;-72
2021/12/17 04:01:59;;;;;;;121.28;25.83;;;;;;;7.86;100.00;103930.66;4982364;28;20114;-71
2021/12/17 04:04:24;;;;;;;105.80;27.17;;;;;;;7.94;100.00;103934.00;4978403;28;20560;-72
2021/12/17 04:07:04;;;;;;;108.18;25.35;;;;;;;8.03;100.00;103929.19;4978373;28;20133;-72
2021/12/17 04:09:59;;;;;;;116.90;25.40;;;;;;;7.80;100.00;103929.59;4930314;28;20465;-72
2021/12/17 04:12:39;;;;;;;101.85;24.23;;;;;;;7.80;100.00;103939.66;4978707;28;20044;-71
2021/12/17 04:15:10;;;;;;;152.70;28.83;;;;;;;7.91;100.00;103939.00;4978721;28;20179;-72
2021/12/17 04:17:43;;;;;;;88.50;23.95;;;;;;;7.97;100.00;103940.91;4996669;28;20066;-71
2021/12/17 04:20:09;;;;;;;133.00;28.35;;;;;;;7.98;100.00;103939.84;4977513;28;20041;-72
2021/12/17 04:22:35;;;;;;;141.52;29.15;;;;;;;7.86;100.00;103934.19;4977846;28;20555;-72
2021/12/17 04:25:00;;;;;;;111.05;26.48;;;;;;;7.91;100.00;103930.84;4978787;28;20054;-73
2021/12/17 04:27:27;;;;;;;123.72;27.60;;;;;;;7.92;100.00;103927.09;4997008;28;20046;-71
2021/12/17 04:29:56;;;;;;;108.68;26.88;;;;;;;8.02;100.00;103921.22;4994566;28;20046;-71
2021/12/17 04:32:22;;;;;;;138.20;29.23;;;;;;;7.84;100.00;103924.59;4994085;28;20045;-72
2021/12/17 04:34:49;;;;;;;110.60;29.20;;;;;;;7.89;100.00;103920.19;4978175;28;20045;-72
2021/12/17 04:37:18;;;;;;;115.95;27.23;;;;;;;7.80;100.00;103917.91;4978487;28;20443;-71
2021/12/17 04:39:51;;;;;;;;;;;;;;;7.77;100.00;103924.59;4978601;28;20072;-72
2021/12/17 04:42:48;;;;;;;145.70;26.38;;;;;;;7.78;100.00;103925.44;4972893;28;20528;-72
2021/12/17 04:45:14;;;;;;;94.68;25.00;;;;;;;7.99;100.00;103925.19;4974567;28;20038;-72
2021/12/17 04:58:59;;;;;;;102.63;24.55;;;;;;;8.10;100.00;103921.00;4959728;28;20042;-71
2021/12/17 05:01:25;;;;;;;97.43;25.25;;;;;;;8.04;100.00;103919.97;4977090;28;20108;-72
2021/12/17 05:03:51;;;;;;;97.90;22.75;;;;;;;8.09;100.00;103919.34;4959144;28;20578;-72
2021/12/17 05:06:18;;;;;;;86.32;22.65;;;;;;;8.15;100.00;103919.31;4957253;28;20038;-72
2021/12/17 05:08:57;;;;;;;95.35;24.15;;;;;;;8.14;100.00;103925.81;4966023;28;20050;-72
2021/12/17 05:11:48;;;;;;;87.82;23.30;;;;;;;8.02;100.00;103934.81;4975923;28;20138;-72
2021/12/17 05:19:48;;;;;;;106.85;24.25;;;;;;;7.98;100.00;103931.69;4959685;28;20042;-72
2021/12/17 05:22:14;;;;;;;142.75;29.17;;;;;;;7.97;100.00;103940.03;4977464;28;20137;-71
2021/12/17 05:24:40;;;;;;;99.10;22.27;;;;;;;8.11;100.00;103941.69;4976972;28;20381;-72
2021/12/17 05:27:06;;;;;;;90.47;23.42;;;;;;;7.97;100.00;103946.31;4974916;28;20053;-72
2021/12/17 05:29:37;;;;;;;120.95;26.10;;;;;;;7.92;100.00;103937.97;4975007;28;20030;-72
2021/12/17 05:32:04;;;;;;;143.68;27.55;;;;;;;8.12;100.00;103935.22;4977669;28;20144;-72
2021/12/17 05:34:30;;;;;;;103.50;24.05;;;;;;;8.11;100.00;103937.09;4975889;28;20137;-72
2021/12/17 05:37:02;;;;;;;110.30;24.90;;;;;;;7.99;100.00;103941.50;4980837;28;20058;-72
2021/12/17 05:39:28;;;;;;;95.88;24.20;;;;;;;8.08;100.00;103936.69;4991090;28;20231;-72
2021/12/17 05:41:57;;;;;;;97.05;23.45;;;;;;;8.07;100.00;103935.84;4992453;28;20161;-72
2021/12/17 05:44:30;;;;;;;97.72;24.60;;;;;;;8.08;100.00;103925.81;4989492;28;20607;-72
2021/12/17 05:46:56;;;;;;;95.82;23.05;;;;;;;8.18;100.00;103919.97;4994509;28;20544;-72
2021/12/17 05:49:26;;;;;;;89.15;22.83;;;;;;;8.15;100.00;103932.91;4993883;28;20038;-71
2021/12/17 05:51:54;;;;;;;98.60;23.88;;;;;;;8.09;100.00;103922.91;4976193;28;20275;-71
2021/12/17 05:54:20;;;;;;;88.30;23.42;;;;;;;8.16;100.00;103934.59;4978497;28;20045;-71
2021/12/17 05:56:50;;;;;;;130.68;23.83;;;;;;;8.07;100.00;103930.41;4978190;28;20510;-72
2021/12/17 05:59:15;;;;;;;151.98;27.35;;;;;;;7.83;100.00;103931.06;4987785;28;20557;-71
2021/12/17 06:01:42;;;;;;;146.10;28.27;;;;;;;7.88;100.00;103931.25;4987025;28;20330;-72
2021/12/17 06:04:08;;;;;;;141.95;28.77;;;;;;;7.82;100.00;103929.38;4990780;28;20619;-72
2021/12/17 06:06:47;;;;;;;162.15;30.00;;;;;;;7.69;100.00;103927.50;4990443;28;20045;-72
2021/12/17 06:09:13;;;;;;;157.93;28.52;;;;;;;7.69;100.00;103933.78;4974899;28;20505;-67
2021/12/17 06:11:38;;;;;;;166.65;30.63;;;;;;;7.83;100.00;103942.78;4995443;28;20038;-72
2021/12/17 06:14:06;;;;;;;146.18;27.77;;;;;;;7.74;100.00;103945.88;4975798;28;20037;-72
2021/12/17 06:16:35;;;;;;;137.40;29.05;;;;;;;7.77;100.00;103937.34;4976302;28;20064;-72
2021/12/17 06:19:06;;;;;;;159.15;29.88;;;;;;;7.72;100.00;103948.81;4976560;28;20428;-71
2021/12/17 06:21:31;;;;;;;128.80;28.73;;;;;;;7.89;100.00;103949.25;4976544;28;20042;-72
2021/12/17 06:23:57;;;;;;;141.65;28.30;;;;;;;7.85;100.00;103947.97;4994048;28;20045;-71
2021/12/17 06:26:23;;;;;;;131.57;28.15;;;;;;;7.90;100.00;103946.31;4977343;28;20076;-71
2021/12/17 06:28:51;;;;;;;140.15;29.00;;;;;;;7.87;100.00;103957.59;4997085;28;20562;-72
2021/12/17 06:31:19;;;;;;;135.82;28.58;;;;;;;7.67;100.00;103960.31;4996762;28;20068;-73
2021/12/17 06:33:45;;;;;;;147.73;30.60;;;;;;;7.65;100.00;103959.69;4996611;28;20588;-72
2021/12/17 06:36:10;;;;;;;146.27;29.08;;;;;;;7.67;100.00;103960.31;4996257;28;20262;-72
2021/12/17 06:38:36;;;;;;;169.38;30.23;;;;;;;7.68;100.00;103959.28;4998162;28;20504;-72
2021/12/17 06:41:03;;;;;;;131.75;27.45;;;;;;;7.66;100.00;103958.63;4983200;28;20042;-73
2021/12/17 06:43:36;;;;;;;158.55;29.55;;;;;;;7.61;100.00;103957.59;4999540;28;20053;-72
2021/12/17 06:46:53;;;;;;;141.23;28.08;;;;;;;7.61;100.00;103955.69;4998823;28;20042;-72
2021/12/17 06:49:08;;;;;;;153.88;29.58;;;;;;;7.65;100.00;103953.41;4981934;28;20049;-72
2021/12/17 06:58:01;;;;;;;115.00;26.00;;;;;;;8.05;100.00;103932.50;4999316;28;20125;-73
2021/12/17 07:10:14;;;;;;;115.63;26.10;;;;;;;7.83;100.00;103928.34;4981281;28;20103;-73
2021/12/17 07:18:49;;;;;;;131.43;26.33;;;;;;;7.59;100.00;103952.38;4968571;28;20042;-72
2021/12/17 07:30:38;;;;;;;116.10;23.40;;;;;;;7.48;100.00;103952.97;4966295;28;20434;-72
2021/12/17 07:35:23;;;;;;;121.28;23.23;;;;;;;7.38;100.00;103947.09;4966424;28;20104;-71
2021/12/17 07:40:25;;;;;;;101.88;21.58;;;;;;;7.60;100.00;103962.19;4965394;28;20147;-71
2021/12/17 07:42:53;;;;;;;96.85;20.48;;;;;;;7.53;100.00;103953.19;4966241;28;20038;-72
2021/12/17 07:45:23;;;;;;;83.40;18.20;;;;;;;7.43;100.00;103952.75;4967126;28;20038;-72
2021/12/17 07:48:03;;;;;;;93.68;18.50;;;;;;;7.45;100.00;103954.22;4984624;28;20504;-72
2021/12/17 07:50:33;;;;;;;77.43;17.60;;;;;;;7.35;100.00;103958.38;4966384;28;20038;-72
2021/12/17 07:53:08;;;;;;;79.78;17.85;;;;;;;7.39;100.00;103959.66;4967329;28;20478;-72
2021/12/17 07:55:46;;;;;;;78.25;18.38;;;;;;;7.38;100.00;103958.78;4967348;28;20052;-72
2021/12/17 07:58:18;;;;;;;82.43;18.30;;;;;;;7.37;100.00;103961.72;4951550;28;20053;-72
2021/12/17 08:00:44;;;;;;;79.65;18.08;;;;;;;7.40;100.00;103955.88;4962464;28;20103;-72
2021/12/17 08:03:11;;;;;;;77.10;17.05;;;;;;;7.52;100.00;103954.22;4959460;28;20042;-73
2021/12/17 08:05:59;;;;;;;71.43;17.33;;;;;;;7.51;100.00;103944.41;4960941;28;20089;-72
2021/12/17 08:08:26;;;;;;;79.53;18.23;;;;;;;7.44;100.00;103946.28;4982458;28;20149;-72
2021/12/17 08:11:08;;;;;;;81.88;17.80;;;;;;;7.39;100.00;103960.50;4979019;28;20046;-73
2021/12/17 08:13:36;;;;;;;91.00;19.65;;;;;;;7.48;100.00;103963.84;4961670;28;20084;-72
2021/12/17 08:24:44;;;;;;;79.07;19.10;;;;;;;7.42;100.00;103978.25;4995409;28;20559;-72
2021/12/17 08:32:02;;;;;;;71.72;16.17;;;;;;;7.47;100.00;103979.28;4962743;28;20099;-72
2021/12/17 08:34:37;;;;;;;63.80;18.55;;;;;;;7.55;100.00;103985.56;4985633;28;20387;-72
2021/12/17 08:37:05;;;;;;;63.58;15.23;;;;;;;7.40;100.00;103977.59;4983657;28;20057;-71
2021/12/17 08:39:31;;;;;;;76.88;18.80;;;;;;;7.52;100.00;103975.97;4977087;28;20126;-72
2021/12/17 08:42:00;;;;;;;80.15;18.25;;;;;;;7.58;100.00;103985.16;4958484;28;20049;-73
2021/12/17 08:44:28;;;;;;;71.38;16.92;;;;;;;7.48;100.00;103977.41;4974556;28;20045;-72
2021/12/17 08:47:12;;;;;;;73.53;18.02;;;;;;;7.52;100.00;103985.97;4976307;28;20056;-72
2021/12/17 08:49:40;;;;;;;69.20;15.88;;;;;;;7.56;100.00;103981.81;4951265;28;20042;-73
2021/12/17 08:52:09;;;;;;;60.47;14.57;;;;;;;7.53;100.00;103977.63;4961378;28;20430;-73
2021/12/17 08:54:35;;;;;;;55.38;14.98;;;;;;;7.48;100.00;103972.00;4995095;28;20049;-72
2021/12/17 08:57:02;;;;;;;54.15;13.13;;;;;;;7.45;100.00;103983.28;4995616;28;20509;-72
2021/12/17 08:59:32;;;;;;;49.28;14.98;;;;;;;7.46;100.00;103982.22;4977779;28;20338;-72
2021/12/17 09:02:13;;;;;;;49.38;15.13;;;;;;;7.57;100.00;103984.31;4995611;28;20064;-72
2021/12/17 09:04:45;;;;;;;57.90;14.38;;;;;;;7.57;100.00;103989.75;4977303;28;20036;-72
2021/12/17 09:07:13;;;;;;;51.83;13.73;;;;;;;7.55;100.00;103980.97;4977005;28;20586;-72
2021/12/17 09:09:40;;;;;;;33.92;11.07;;;;;;;7.58;100.00;103991.41;4958593;28;20057;-72
2021/12/17 09:12:18;;;;;;;46.45;11.43;;;;;;;7.58;100.00;103994.13;4974689;28;20044;-72
2021/12/17 09:14:44;;;;;;;43.20;11.98;;;;;;;7.80;100.00;103993.97;4981469;28;20043;-73
2021/12/17 09:17:38;;;;;;;46.30;13.18;;;;;;;7.80;100.00;104007.56;4989337;28;20512;-72
2021/12/17 09:20:07;;;;;;;43.17;11.93;;;;;;;7.69;100.00;104009.00;4992873;28;20040;-72
2021/12/17 09:22:34;;;;;;;39.20;12.95;;;;;;;7.73;100.00;104010.25;4994908;28;20445;-73
2021/12/17 09:25:04;;;;;;;40.53;12.88;;;;;;;7.82;100.00;104010.88;4985470;28;20124;-73
2021/12/17 09:27:51;;;;;;;41.22;10.73;;;;;;;7.79;100.00;104016.75;5001535;28;20379;-72
2021/12/17 09:30:35;;;;;;;38.30;11.25;;;;;;;7.96;100.00;104015.28;5004128;28;20484;-73
2021/12/17 09:33:00;;;;;;;38.33;11.98;;;;;;;7.90;100.00;104022.41;4981140;28;20038;-72
2021/12/17 09:35:26;;;;;;;35.50;10.82;;;;;;;7.98;100.00;104024.09;4982074;28;20037;-73
2021/12/17 09:37:51;;;;;;;35.13;11.43;;;;;;;8.07;100.00;104020.09;5003717;28;20045;-73
2021/12/17 09:40:17;;;;;;;38.17;12.23;;;;;;;8.16;100.00;104018.84;4985861;28;20506;-72
2021/12/17 09:42:45;;;;;;;33.70;10.48;;;;;;;8.07;100.00;104027.44;5002162;28;20052;-73
2021/12/17 09:45:12;;;;;;;32.58;11.98;;;;;;;8.06;100.00;104036.63;4977793;28;20160;-73
2021/12/17 09:47:41;;;;;;;28.35;10.30;;;;;;;8.16;100.00;104042.47;5001678;28;20834;-73
2021/12/17 09:50:09;;;;;;;33.75;11.07;;;;;;;7.97;100.00;104046.88;5000166;28;20124;-72
2021/12/17 09:52:34;;;;;;;26.55;10.88;;;;;;;8.05;100.00;104035.78;5001999;28;20645;-73
2021/12/17 09:55:03;;;;;;;26.77;10.73;;;;;;;8.01;100.00;104045.41;4978022;28;20112;-73
2021/12/17 09:57:35;;;;;;;32.83;11.52;;;;;;;8.28;100.00;104034.53;4998521;28;20136;-73
2021/12/17 10:00:01;;;;;;;28.45;10.32;;;;;;;8.38;100.00;104040.41;4978287;28;20089;-73
2021/12/17 10:02:27;;;;;;;29.02;11.32;;;;;;;8.57;100.00;104045.00;4963205;28;20418;-73
2021/12/17 10:04:55;;;;;;;27.73;11.27;;;;;;;8.31;100.00;104053.16;4982074;28;20410;-73
2021/12/17 10:07:23;;;;;;;24.55;9.07;;;;;;;8.31;100.00;104051.25;4983102;28;20501;-73
2021/12/17 10:09:50;;;;;;;24.35;10.07;;;;;;;8.49;100.00;104052.53;4998623;28;20069;-73
2021/12/17 10:12:16;;;;;;;26.15;9.20;;;;;;;8.61;100.00;104045.44;4989702;28;20732;-73
2021/12/17 10:14:56;;;;;;;22.67;9.15;;;;;;;8.31;100.00;104061.31;4998410;28;20041;-73
2021/12/17 10:17:22;;;;;;;23.90;9.05;;;;;;;8.29;100.00;104052.50;4985925;28;20398;-72
2021/12/17 10:19:49;;;;;;;19.77;7.90;;;;;;;8.34;100.00;104052.72;4977471;28;20037;-73
2021/12/17 10:22:18;;;;;;;18.48;7.82;;;;;;;8.56;100.00;104056.94;4978123;28;20481;-73
2021/12/17 10:25:08;;;;;;;20.30;7.22;;;;;;;8.36;100.00;104053.38;5003253;28;20290;-73
2021/12/17 10:27:36;;;;;;;21.45;8.60;;;;;;;8.50;100.00;104051.50;4990910;28;20052;-73
2021/12/17 10:30:29;;;;;;;18.90;7.55;;;;;;;8.36;100.00;104045.19;4998950;28;20422;-73
2021/12/17 10:32:58;;;;;;;18.02;7.50;;;;;;;8.44;100.00;104036.03;4999517;28;20062;-73
2021/12/17 10:35:25;;;;;;;18.98;6.22;;;;;;;8.19;100.00;104047.50;4995024;28;20042;-73
2021/12/17 10:37:57;;;;;;;16.60;6.68;;;;;;;8.19;100.00;104047.50;5005468;28;20819;-73
2021/12/17 10:40:26;;;;;;;17.85;6.32;;;;;;;8.13;100.00;104045.63;5018228;28;20421;-74
2021/12/17 10:43:04;;;;;;;23.85;6.82;;;;;;;8.33;100.00;104048.34;5018058;28;20111;-76
2021/12/17 10:45:34;;;;;;;18.85;6.40;;;;;;;8.36;100.00;104047.94;5016760;28;20438;-72
2021/12/17 10:48:22;;;;;;;11.95;5.28;;;;;;;8.11;100.00;104053.13;5018099;28;20049;-71
2021/12/17 10:50:50;;;;;;;11.38;5.13;;;;;;;8.30;100.00;104054.22;4997612;28;20410;-71
2021/12/17 10:53:20;;;;;;;13.73;5.13;;;;;;;8.21;100.00;104050.03;4979442;28;20421;-72
2021/12/17 10:55:49;;;;;;;15.05;4.93;;;;;;;8.21;100.00;104064.44;4997882;28;20487;-72
2021/12/17 10:58:14;;;;;;;8.65;3.85;;;;;;;8.31;100.00;104064.03;4998110;28;20431;-73
2021/12/17 11:01:05;;;;;;;9.35;4.03;;;;;;;8.37;100.00;104061.28;4997300;28;20044;-72
2021/12/17 11:03:39;;;;;;;9.77;4.20;;;;;;;8.24;100.00;104061.31;4961766;28;20077;-71
2021/12/17 11:06:04;;;;;;;11.93;3.75;;;;;;;8.29;100.00;104063.38;4977778;28;20857;-72
2021/12/17 11:08:33;;;;;;;8.52;4.20;;;;;;;8.42;100.00;104055.28;4977400;28;20057;-72
2021/12/17 11:11:08;;;;;;;15.60;5.00;;;;;;;8.43;100.00;104048.78;4960531;28;20118;-71
2021/12/17 11:13:58;;;;;;;8.32;4.57;;;;;;;8.58;100.00;104052.13;4978421;28;20052;-71
2021/12/17 11:16:26;;;;;;;11.52;4.97;;;;;;;8.65;100.00;104045.84;4959766;28;20120;-72
2021/12/17 11:18:53;;;;;;;11.75;4.90;;;;;;;8.81;100.00;104050.81;4975901;28;20061;-72
2021/12/17 11:21:19;;;;;;;8.85;4.38;;;;;;;8.54;100.00;104055.47;4978182;28;20042;-72
2021/12/17 11:23:45;;;;;;;10.70;4.68;;;;;;;8.56;100.00;104056.94;4960614;28;20046;-73
2021/12/17 11:26:11;;;;;;;8.73;3.85;;;;;;;8.57;100.00;104050.44;4977907;28;20795;-72
2021/12/17 11:28:37;;;;;;;9.60;4.13;;;;;;;8.65;100.00;104040.41;4977882;28;20145;-71
2021/12/17 11:31:03;;;;;;;5.43;3.10;;;;;;;8.56;100.00;104043.34;4977274;28;20038;-72
2021/12/17 11:33:29;;;;;;;5.07;2.95;;;;;;;8.57;100.00;104041.44;4977718;28;20042;-71
2021/12/17 11:35:55;;;;;;;4.53;2.78;;;;;;;8.50;100.00;104046.91;4977866;28;20042;-72
2021/12/17 11:38:24;;;;;;;8.13;3.10;;;;;;;8.46;100.00;104040.19;4960652;28;20049;-71
2021/12/17 11:41:01;;;;;;;7.45;3.20;;;;;;;8.51;100.00;104037.69;4960093;28;20896;-70
2021/12/17 11:43:50;;;;;;;8.23;3.42;;;;;;;8.70;100.00;104032.44;4976509;28;20042;-71
2021/12/17 11:46:23;;;;;;;6.75;3.50;;;;;;;9.05;100.00;104030.25;4996184;28;20540;-72
2021/12/17 11:48:50;;;;;;;;;;;;;;;9.19;100.00;104025.56;4998179;28;20083;-73
2021/12/17 11:51:18;;;;;;;4.60;3.05;;;;;;;9.01;100.00;104026.25;4997508;28;20106;-72
2021/12/17 11:54:00;;;;;;;8.60;4.38;;;;;;;9.11;100.00;104039.44;4995733;28;20069;-71
2021/12/17 11:56:35;;;;;;;5.90;3.30;;;;;;;8.90;100.00;104044.09;4995159;28;20144;-72
2021/12/17 11:59:02;;;;;;;7.65;3.90;;;;;;;9.04;100.00;104034.81;4991923;28;20049;-72
2021/12/17 12:01:49;;;;;;;8.15;4.10;;;;;;;9.09;100.00;104033.34;5000931;28;20371;-71
2021/12/17 12:04:45;;;;;;;7.13;4.53;;;;;;;9.27;100.00;104033.47;4999135;28;20611;-71
2021/12/17 12:07:24;;;;;;;6.38;4.15;;;;;;;9.18;100.00;104023.88;4995173;28;20057;-71
2021/12/17 12:09:57;;;;;;;6.78;4.25;;;;;;;9.44;100.00;104021.03;4994065;28;20077;-71
2021/12/17 12:12:45;;;;;;;4.72;3.83;;;;;;;9.25;100.00;104027.41;5003156;28;20037;-70
2021/12/17 12:15:17;;;;;;;5.57;3.90;;;;;;;9.20;100.00;104016.34;4989028;28;20057;-70
2021/12/17 12:18:03;;;;;;;6.33;4.40;;;;;;;9.13;100.00;104015.53;4998677;28;20052;-71
2021/12/17 12:20:50;;;;;;;7.47;4.15;;;;;;;9.26;100.00;104021.75;5017947;28;20490;-73
2021/12/17 12:23:29;;;;;;;6.90;4.13;;;;;;;9.27;100.00;104017.13;5018690;28;20049;-72
2021/12/17 12:26:04;;;;;;;6.80;4.68;;;;;;;9.25;100.00;104019.25;4991114;28;20069;-73
2021/12/17 12:28:44;;;;;;;6.20;4.68;;;;;;;9.06;100.00;104005.50;4995177;28;20041;-73
2021/12/17 12:31:10;;;;;;;8.15;4.72;;;;;;;9.38;100.00;104002.84;4997077;28;20124;-72
2021/12/17 12:33:36;;;;;;;6.85;4.75;;;;;;;9.15;100.00;104013.44;4996273;28;20053;-72
2021/12/17 12:36:01;;;;;;;7.63;4.35;;;;;;;9.17;100.00;104012.16;4996821;28;20127;-72
2021/12/17 12:38:31;;;;;;;8.65;5.30;;;;;;;9.43;100.00;104000.31;4997277;28;20104;-73
2021/12/17 12:41:00;;;;;;;7.78;5.38;;;;;;;9.37;100.00;104012.06;4981539;28;20465;-71
2021/12/17 12:43:32;;;;;;;7.18;5.03;;;;;;;9.53;100.00;104011.53;4962039;28;20042;-69
2021/12/17 12:45:58;;;;;;;6.10;4.43;;;;;;;9.21;100.00;103999.78;4998607;28;20037;-71
2021/12/17 12:48:39;;;;;;;6.35;4.68;;;;;;;9.77;100.00;104000.91;4999403;28;20036;-70
2021/12/17 12:51:20;;;;;;;9.60;4.80;;;;;;;9.80;100.00;103995.00;4998381;28;20053;-70
2021/12/17 12:54:07;;;;;;;9.00;5.22;;;;;;;9.59;100.00;103988.03;4997727;28;20508;-70
2021/12/17 12:56:33;;;;;;;10.82;5.25;;;;;;;9.51;100.00;103985.56;4992046;28;20033;-71
2021/12/17 12:58:59;;;;;;;7.13;5.03;;;;;;;9.56;100.00;103993.94;5010435;28;20481;-71
2021/12/17 13:01:24;;;;;;;6.85;5.32;;;;;;;9.84;100.00;103989.97;5005087;28;20562;-69
2021/12/17 13:03:50;;;;;;;7.25;4.82;;;;;;;9.64;100.00;103985.50;5001682;28;20034;-72
2021/12/17 13:06:18;;;;;;;6.88;5.40;;;;;;;9.51;100.00;103991.00;4996359;28;20140;-72
2021/12/17 13:08:55;;;;;;;9.50;5.53;;;;;;;9.56;100.00;103993.94;4982413;28;20131;-71
2021/12/17 13:11:22;;;;;;;10.13;5.60;;;;;;;9.67;100.00;103995.13;5003219;28;20044;-72
2021/12/17 13:13:58;;;;;;;10.88;5.22;;;;;;;9.38;100.00;104002.00;4997345;28;20041;-73
2021/12/17 13:24:16;;;;;;;8.50;5.47;;;;;;;9.29;100.00;103994.09;4983701;28;20501;-73
2021/12/17 13:26:45;;;;;;;9.63;5.72;;;;;;;9.27;100.00;103998.06;4996832;28;20377;-72
2021/12/17 13:29:14;;;;;;;8.05;5.38;;;;;;;9.12;100.00;103989.38;4981959;28;20365;-72
2021/12/17 13:31:47;;;;;;;10.50;6.03;;;;;;;9.25;100.00;103984.69;4996461;28;20030;-72
2021/12/17 13:34:17;;;;;;;10.73;6.25;;;;;;;9.30;100.00;103986.75;4985643;28;20088;-73
2021/12/17 13:37:03;;;;;;;10.10;5.35;;;;;;;9.22;100.00;103976.09;4988166;28;20137;-72
2021/12/17 13:39:35;;;;;;;7.82;5.50;;;;;;;9.23;100.00;103983.25;5001400;28;20050;-72
2021/12/17 13:42:01;;;;;;;7.97;5.60;;;;;;;9.41;100.00;103975.16;5000107;28;20274;-72
2021/12/17 13:44:33;;;;;;;9.57;6.20;;;;;;;9.40;100.00;103978.13;4999989;28;20057;-72
2021/12/17 13:47:22;;;;;;;9.07;6.03;;;;;;;9.37;100.00;103984.00;5006469;28;20046;-72
2021/12/17 13:49:56;;;;;;;10.68;6.22;;;;;;;9.51;100.00;103974.66;4996499;28;20038;-72
2021/12/17 13:52:25;;;;;;;10.98;6.60;;;;;;;9.54;100.00;103968.81;4997553;28;20046;-73
2021/12/17 13:54:52;;;;;;;11.52;5.88;;;;;;;9.60;100.00;103959.75;4996125;28;20038;-73
2021/12/17 13:57:20;;;;;;;10.05;5.82;;;;;;;9.78;100.00;103959.00;4986136;28;20066;-71
2021/12/17 13:59:46;;;;;;;8.65;5.72;;;;;;;9.49;100.00;103961.28;4995397;28;20077;-72
2021/12/17 14:02:15;;;;;;;9.75;6.20;;;;;;;9.64;100.00;103968.31;4993966;28;20137;-72
2021/12/17 14:04:42;;;;;;;8.15;6.20;;;;;;;9.86;100.00;103971.47;4993677;28;20038;-73